Macadam — FGF8461 — position and weather

sailwx.info

Track history (hours):
 
Tides and Currents Weather Stations Pressure Air Temp Water Temp Dewpoint Dewpoint Depression Visibility Wind Speed Wind Dir Waves Ship Positions

Macadam

Last reported at 2017-Oct-15 16:26 UTC. Time now 2017-Nov-23 03:55 UTC.
Position N 46°30' W 001°47'.
Warning: this ship's position is 38 days out of date.

Length 13 m.

Type: Sailing vessel. MMSI: 227761530.

Date/timePositionNaut miles runAvg speedWind from/ knotsBaromVisibWave heightAir tempDewpointWater temp
2017-Oct-15 16:26N 46°30' W 001°47'0 0.4
2017-Oct-15 16:00N 46°30' W 001°48'3 5.4
2017-Oct-15 15:30N 46°28' W 001°46'3 5.8
2017-Oct-15 15:00N 46°26' W 001°43'21 0.8
2017-Oct-14 11:34N 46°13' W 001°18'1 2.7
2017-Oct-14 11:04N 46°12' W 001°16'1 2.9
2017-Oct-14 10:50N 46°11' W 001°16'3 3.0
2017-Oct-14 09:48N 46°08' W 001°15'1 3.3
2017-Oct-14 09:28N 46°08' W 001°13'1 3.2
2017-Oct-14 09:00N 46°09' W 001°11'1 0.0
2017-Oct-13 17:43N 46°09' W 001°10'0 1.2
2017-Oct-13 17:28N 46°09' W 001°10'3 5.3
2017-Oct-13 16:53N 46°10' W 001°15'20 5.7
2017-Oct-13 13:28N 46°22' W 001°36'3 5.6
2017-Oct-13 12:59N 46°23' W 001°40'3 5.8
2017-Oct-13 12:30N 46°25' W 001°43'3 5.8
2017-Oct-13 12:00N 46°26' W 001°47'2 3.4
2017-Oct-13 11:30N 46°27' W 001°49'2 3.8
2017-Oct-13 11:00N 46°29' W 001°47'  
Track history (hours):
 
Tides and Currents Weather Stations Pressure Air Temp Water Temp Dewpoint Dewpoint Depression Visibility Wind Speed Wind Dir Waves Ship Positions

Macadam

Last reported at 2017-Oct-15 16:26 UTC. Time now 2017-Nov-23 03:55 UTC.
Position N 46°30' W 001°47'.
Warning: this ship's position is 38 days out of date.

Length 13 m.

Type: Sailing vessel. MMSI: 227761530.

Date/timePositionNaut miles runAvg speedWind from/ knotsBaromVisibWave heightAir tempDewpointWater temp
2017-Oct-15 16:26N 46°30' W 001°47'0 0.4
2017-Oct-15 16:00N 46°30' W 001°48'3 5.4
2017-Oct-15 15:30N 46°28' W 001°46'3 5.8
2017-Oct-15 15:00N 46°26' W 001°43'21 0.8
2017-Oct-14 11:34N 46°13' W 001°18'1 2.7
2017-Oct-14 11:04N 46°12' W 001°16'1 2.9
2017-Oct-14 10:50N 46°11' W 001°16'3 3.0
2017-Oct-14 09:48N 46°08' W 001°15'1 3.3
2017-Oct-14 09:28N 46°08' W 001°13'1 3.2
2017-Oct-14 09:00N 46°09' W 001°11'1 0.0
2017-Oct-13 17:43N 46°09' W 001°10'0 1.2
2017-Oct-13 17:28N 46°09' W 001°10'3 5.3
2017-Oct-13 16:53N 46°10' W 001°15'20 5.7
2017-Oct-13 13:28N 46°22' W 001°36'3 5.6
2017-Oct-13 12:59N 46°23' W 001°40'3 5.8
2017-Oct-13 12:30N 46°25' W 001°43'3 5.8
2017-Oct-13 12:00N 46°26' W 001°47'2 3.4
2017-Oct-13 11:30N 46°27' W 001°49'2 3.8
2017-Oct-13 11:00N 46°29' W 001°47'  

Dump ship's entire track history